sensor_id;sensor_type;location;lat;lon;timestamp;P1;durP1;ratioP1;P2;durP2;ratioP2
8466;SDS011;4270;48.148;11.648;2023-05-20T00:00:31;5.80;;;5.30;;
8466;SDS011;4270;48.148;11.648;2023-05-20T00:02:56;6.83;;;6.00;;
8466;SDS011;4270;48.148;11.648;2023-05-20T00:05:23;6.00;;;5.40;;
8466;SDS011;4270;48.148;11.648;2023-05-20T00:07:49;6.53;;;5.90;;
8466;SDS011;4270;48.148;11.648;2023-05-20T00:10:14;6.80;;;6.10;;
8466;SDS011;4270;48.148;11.648;2023-05-20T00:12:39;8.77;;;6.07;;
8466;SDS011;4270;48.148;11.648;2023-05-20T00:15:04;8.00;;;7.10;;
8466;SDS011;4270;48.148;11.648;2023-05-20T00:17:30;7.00;;;6.00;;
8466;SDS011;4270;48.148;11.648;2023-05-20T00:19:55;7.53;;;6.27;;
8466;SDS011;4270;48.148;11.648;2023-05-20T00:22:20;7.60;;;6.00;;
8466;SDS011;4270;48.148;11.648;2023-05-20T00:24:45;7.50;;;6.10;;
8466;SDS011;4270;48.148;11.648;2023-05-20T00:27:11;7.37;;;5.90;;
8466;SDS011;4270;48.148;11.648;2023-05-20T00:29:36;6.47;;;5.87;;
8466;SDS011;4270;48.148;11.648;2023-05-20T00:32:01;7.90;;;5.80;;
8466;SDS011;4270;48.148;11.648;2023-05-20T00:34:26;8.40;;;5.70;;
8466;SDS011;4270;48.148;11.648;2023-05-20T00:36:51;9.13;;;6.13;;
8466;SDS011;4270;48.148;11.648;2023-05-20T00:39:17;8.10;;;7.20;;
8466;SDS011;4270;48.148;11.648;2023-05-20T00:41:42;7.10;;;6.40;;
8466;SDS011;4270;48.148;11.648;2023-05-20T00:44:07;6.60;;;5.90;;
8466;SDS011;4270;48.148;11.648;2023-05-20T00:46:32;8.93;;;6.80;;
8466;SDS011;4270;48.148;11.648;2023-05-20T00:48:58;7.07;;;5.83;;
8466;SDS011;4270;48.148;11.648;2023-05-20T00:51:23;7.03;;;6.33;;
8466;SDS011;4270;48.148;11.648;2023-05-20T00:53:48;6.50;;;5.40;;
8466;SDS011;4270;48.148;11.648;2023-05-20T00:56:14;7.43;;;6.70;;
8466;SDS011;4270;48.148;11.648;2023-05-20T00:58:39;8.50;;;6.10;;
8466;SDS011;4270;48.148;11.648;2023-05-20T01:01:04;8.43;;;7.23;;
8466;SDS011;4270;48.148;11.648;2023-05-20T01:03:30;7.17;;;6.47;;
8466;SDS011;4270;48.148;11.648;2023-05-20T01:05:55;7.57;;;6.63;;
8466;SDS011;4270;48.148;11.648;2023-05-20T01:08:21;10.73;;;6.53;;
8466;SDS011;4270;48.148;11.648;2023-05-20T01:10:48;6.63;;;6.03;;
8466;SDS011;4270;48.148;11.648;2023-05-20T01:13:16;7.70;;;6.13;;
8466;SDS011;4270;48.148;11.648;2023-05-20T01:15:43;6.53;;;5.83;;
8466;SDS011;4270;48.148;11.648;2023-05-20T01:18:13;7.30;;;6.40;;
8466;SDS011;4270;48.148;11.648;2023-05-20T01:20:45;7.70;;;6.90;;
8466;SDS011;4270;48.148;11.648;2023-05-20T01:23:13;8.53;;;6.30;;
8466;SDS011;4270;48.148;11.648;2023-05-20T01:25:39;9.37;;;6.27;;
8466;SDS011;4270;48.148;11.648;2023-05-20T01:28:06;7.17;;;6.17;;
8466;SDS011;4270;48.148;11.648;2023-05-20T01:30:32;8.00;;;6.90;;
8466;SDS011;4270;48.148;11.648;2023-05-20T01:33:01;7.63;;;6.90;;
8466;SDS011;4270;48.148;11.648;2023-05-20T01:35:28;8.63;;;6.77;;
8466;SDS011;4270;48.148;11.648;2023-05-20T01:37:54;8.37;;;6.77;;
8466;SDS011;4270;48.148;11.648;2023-05-20T01:40:20;8.13;;;6.83;;
8466;SDS011;4270;48.148;11.648;2023-05-20T01:42:45;9.37;;;6.63;;
8466;SDS011;4270;48.148;11.648;2023-05-20T01:45:16;9.90;;;6.80;;
8466;SDS011;4270;48.148;11.648;2023-05-20T01:47:43;7.83;;;7.03;;
8466;SDS011;4270;48.148;11.648;2023-05-20T01:50:09;8.50;;;7.57;;
8466;SDS011;4270;48.148;11.648;2023-05-20T01:52:34;8.27;;;6.30;;
8466;SDS011;4270;48.148;11.648;2023-05-20T01:55:00;9.73;;;7.33;;
8466;SDS011;4270;48.148;11.648;2023-05-20T01:57:25;9.30;;;6.87;;
8466;SDS011;4270;48.148;11.648;2023-05-20T01:59:50;9.40;;;7.63;;
8466;SDS011;4270;48.148;11.648;2023-05-20T02:02:15;9.03;;;7.60;;
8466;SDS011;4270;48.148;11.648;2023-05-20T02:04:44;9.07;;;7.73;;
8466;SDS011;4270;48.148;11.648;2023-05-20T02:07:12;10.33;;;8.00;;
8466;SDS011;4270;48.148;11.648;2023-05-20T02:09:37;11.50;;;8.30;;
8466;SDS011;4270;48.148;11.648;2023-05-20T02:12:03;12.40;;;8.80;;
8466;SDS011;4270;48.148;11.648;2023-05-20T02:14:28;8.00;;;7.20;;
8466;SDS011;4270;48.148;11.648;2023-05-20T02:16:53;8.80;;;7.85;;
8466;SDS011;4270;48.148;11.648;2023-05-20T02:19:18;10.60;;;8.50;;
8466;SDS011;4270;48.148;11.648;2023-05-20T02:21:47;10.50;;;7.87;;
8466;SDS011;4270;48.148;11.648;2023-05-20T02:24:12;10.73;;;7.93;;
8466;SDS011;4270;48.148;11.648;2023-05-20T02:26:38;8.97;;;8.07;;
8466;SDS011;4270;48.148;11.648;2023-05-20T02:29:03;10.97;;;8.30;;
8466;SDS011;4270;48.148;11.648;2023-05-20T02:31:29;9.90;;;8.13;;
8466;SDS011;4270;48.148;11.648;2023-05-20T02:33:54;9.87;;;8.87;;
8466;SDS011;4270;48.148;11.648;2023-05-20T02:36:19;8.80;;;7.90;;
8466;SDS011;4270;48.148;11.648;2023-05-20T02:38:45;11.10;;;8.60;;
8466;SDS011;4270;48.148;11.648;2023-05-20T02:41:10;11.98;;;8.98;;
8466;SDS011;4270;48.148;11.648;2023-05-20T02:43:35;9.90;;;8.90;;
8466;SDS011;4270;48.148;11.648;2023-05-20T02:46:01;11.07;;;8.30;;
8466;SDS011;4270;48.148;11.648;2023-05-20T02:48:26;11.70;;;9.20;;
8466;SDS011;4270;48.148;11.648;2023-05-20T02:50:51;10.00;;;8.55;;
8466;SDS011;4270;48.148;11.648;2023-05-20T02:53:17;13.30;;;9.40;;
8466;SDS011;4270;48.148;11.648;2023-05-20T02:55:42;11.27;;;8.80;;
8466;SDS011;4270;48.148;11.648;2023-05-20T02:58:08;11.33;;;9.30;;
8466;SDS011;4270;48.148;11.648;2023-05-20T03:00:34;10.97;;;9.60;;
8466;SDS011;4270;48.148;11.648;2023-05-20T03:03:04;9.73;;;8.63;;
8466;SDS011;4270;48.148;11.648;2023-05-20T03:05:30;10.73;;;8.60;;
8466;SDS011;4270;48.148;11.648;2023-05-20T03:07:56;12.13;;;10.83;;
8466;SDS011;4270;48.148;11.648;2023-05-20T03:10:21;11.37;;;9.17;;
8466;SDS011;4270;48.148;11.648;2023-05-20T03:12:46;11.33;;;9.73;;
8466;SDS011;4270;48.148;11.648;2023-05-20T03:15:11;10.70;;;9.57;;
8466;SDS011;4270;48.148;11.648;2023-05-20T03:17:37;11.97;;;10.43;;
8466;SDS011;4270;48.148;11.648;2023-05-20T03:20:02;11.35;;;9.65;;
8466;SDS011;4270;48.148;11.648;2023-05-20T03:22:32;14.20;;;10.27;;
8466;SDS011;4270;48.148;11.648;2023-05-20T03:24:57;11.60;;;9.57;;
8466;SDS011;4270;48.148;11.648;2023-05-20T03:27:24;12.03;;;9.83;;
8466;SDS011;4270;48.148;11.648;2023-05-20T03:29:50;12.93;;;10.47;;
8466;SDS011;4270;48.148;11.648;2023-05-20T03:32:15;17.00;;;10.85;;
8466;SDS011;4270;48.148;11.648;2023-05-20T03:34:40;12.03;;;10.30;;
8466;SDS011;4270;48.148;11.648;2023-05-20T03:37:06;14.73;;;10.33;;
8466;SDS011;4270;48.148;11.648;2023-05-20T03:39:31;11.57;;;10.03;;
8466;SDS011;4270;48.148;11.648;2023-05-20T03:41:57;11.82;;;10.20;;
8466;SDS011;4270;48.148;11.648;2023-05-20T03:44:22;12.98;;;10.40;;
8466;SDS011;4270;48.148;11.648;2023-05-20T03:46:47;12.00;;;10.43;;
8466;SDS011;4270;48.148;11.648;2023-05-20T03:49:12;13.85;;;10.88;;
8466;SDS011;4270;48.148;11.648;2023-05-20T03:51:37;13.67;;;10.33;;
8466;SDS011;4270;48.148;11.648;2023-05-20T03:54:02;12.10;;;9.77;;
8466;SDS011;4270;48.148;11.648;2023-05-20T03:56:28;14.00;;;11.70;;
8466;SDS011;4270;48.148;11.648;2023-05-20T03:58:53;12.40;;;10.10;;
8466;SDS011;4270;48.148;11.648;2023-05-20T04:01:18;11.83;;;10.63;;
8466;SDS011;4270;48.148;11.648;2023-05-20T04:03:45;13.87;;;11.10;;
8466;SDS011;4270;48.148;11.648;2023-05-20T04:06:10;12.70;;;10.55;;
8466;SDS011;4270;48.148;11.648;2023-05-20T04:08:35;16.67;;;12.00;;
8466;SDS011;4270;48.148;11.648;2023-05-20T04:11:01;11.70;;;10.43;;
8466;SDS011;4270;48.148;11.648;2023-05-20T04:13:26;13.43;;;11.03;;
8466;SDS011;4270;48.148;11.648;2023-05-20T04:15:51;14.10;;;11.90;;
8466;SDS011;4270;48.148;11.648;2023-05-20T04:18:17;17.50;;;11.90;;
8466;SDS011;4270;48.148;11.648;2023-05-20T04:20:42;13.47;;;11.23;;
8466;SDS011;4270;48.148;11.648;2023-05-20T04:23:07;12.20;;;10.80;;
8466;SDS011;4270;48.148;11.648;2023-05-20T04:25:32;15.02;;;11.48;;
8466;SDS011;4270;48.148;11.648;2023-05-20T04:27:58;19.77;;;12.03;;
8466;SDS011;4270;48.148;11.648;2023-05-20T04:30:24;16.17;;;12.40;;
8466;SDS011;4270;48.148;11.648;2023-05-20T04:32:49;16.50;;;12.23;;
8466;SDS011;4270;48.148;11.648;2023-05-20T04:35:15;15.10;;;12.33;;
8466;SDS011;4270;48.148;11.648;2023-05-20T04:37:40;15.67;;;12.10;;
8466;SDS011;4270;48.148;11.648;2023-05-20T04:40:06;15.27;;;12.50;;
8466;SDS011;4270;48.148;11.648;2023-05-20T04:42:33;17.00;;;13.17;;
8466;SDS011;4270;48.148;11.648;2023-05-20T04:44:58;17.63;;;12.90;;
8466;SDS011;4270;48.148;11.648;2023-05-20T04:47:26;19.87;;;14.67;;
8466;SDS011;4270;48.148;11.648;2023-05-20T04:49:52;19.93;;;13.90;;
8466;SDS011;4270;48.148;11.648;2023-05-20T04:52:17;21.47;;;15.27;;
8466;SDS011;4270;48.148;11.648;2023-05-20T04:54:43;21.07;;;15.00;;
8466;SDS011;4270;48.148;11.648;2023-05-20T04:57:08;22.87;;;15.83;;
8466;SDS011;4270;48.148;11.648;2023-05-20T04:59:33;20.13;;;14.48;;
8466;SDS011;4270;48.148;11.648;2023-05-20T05:01:58;19.73;;;15.10;;
8466;SDS011;4270;48.148;11.648;2023-05-20T05:04:23;23.50;;;14.50;;
8466;SDS011;4270;48.148;11.648;2023-05-20T05:06:48;22.87;;;15.70;;
8466;SDS011;4270;48.148;11.648;2023-05-20T05:09:14;23.93;;;16.73;;
8466;SDS011;4270;48.148;11.648;2023-05-20T05:11:39;25.47;;;16.70;;
8466;SDS011;4270;48.148;11.648;2023-05-20T05:14:04;24.20;;;15.77;;
8466;SDS011;4270;48.148;11.648;2023-05-20T05:16:30;23.70;;;16.50;;
8466;SDS011;4270;48.148;11.648;2023-05-20T05:18:55;24.57;;;16.50;;
8466;SDS011;4270;48.148;11.648;2023-05-20T05:21:20;22.53;;;16.00;;
8466;SDS011;4270;48.148;11.648;2023-05-20T05:23:45;23.57;;;17.00;;
8466;SDS011;4270;48.148;11.648;2023-05-20T05:26:11;29.33;;;16.20;;
8466;SDS011;4270;48.148;11.648;2023-05-20T05:28:36;27.30;;;16.60;;
8466;SDS011;4270;48.148;11.648;2023-05-20T05:31:01;26.90;;;16.83;;
8466;SDS011;4270;48.148;11.648;2023-05-20T05:33:27;29.57;;;18.87;;
8466;SDS011;4270;48.148;11.648;2023-05-20T05:35:52;29.13;;;19.00;;
8466;SDS011;4270;48.148;11.648;2023-05-20T05:38:17;27.67;;;17.90;;
8466;SDS011;4270;48.148;11.648;2023-05-20T05:40:43;33.63;;;17.27;;
8466;SDS011;4270;48.148;11.648;2023-05-20T05:43:08;26.43;;;17.03;;
8466;SDS011;4270;48.148;11.648;2023-05-20T05:45:33;26.80;;;16.53;;
8466;SDS011;4270;48.148;11.648;2023-05-20T05:47:58;24.60;;;16.87;;
8466;SDS011;4270;48.148;11.648;2023-05-20T05:50:23;24.67;;;16.85;;
8466;SDS011;4270;48.148;11.648;2023-05-20T05:52:49;26.50;;;18.17;;
8466;SDS011;4270;48.148;11.648;2023-05-20T05:55:14;35.00;;;18.80;;
8466;SDS011;4270;48.148;11.648;2023-05-20T05:57:39;25.73;;;16.83;;
8466;SDS011;4270;48.148;11.648;2023-05-20T06:00:05;25.63;;;17.90;;
8466;SDS011;4270;48.148;11.648;2023-05-20T06:02:30;29.10;;;17.87;;
8466;SDS011;4270;48.148;11.648;2023-05-20T06:05:00;27.73;;;17.90;;
8466;SDS011;4270;48.148;11.648;2023-05-20T06:07:25;27.37;;;18.37;;
8466;SDS011;4270;48.148;11.648;2023-05-20T06:09:50;25.27;;;17.00;;
8466;SDS011;4270;48.148;11.648;2023-05-20T06:12:15;26.05;;;17.45;;
8466;SDS011;4270;48.148;11.648;2023-05-20T06:14:40;28.00;;;18.57;;
8466;SDS011;4270;48.148;11.648;2023-05-20T06:17:05;23.50;;;17.30;;
8466;SDS011;4270;48.148;11.648;2023-05-20T06:19:31;21.50;;;15.53;;
8466;SDS011;4270;48.148;11.648;2023-05-20T06:21:56;28.80;;;17.30;;
8466;SDS011;4270;48.148;11.648;2023-05-20T06:24:22;23.53;;;15.93;;
8466;SDS011;4270;48.148;11.648;2023-05-20T06:26:47;27.40;;;18.87;;
8466;SDS011;4270;48.148;11.648;2023-05-20T06:29:14;25.00;;;16.77;;
8466;SDS011;4270;48.148;11.648;2023-05-20T06:31:39;23.67;;;17.10;;
8466;SDS011;4270;48.148;11.648;2023-05-20T06:34:04;24.83;;;17.30;;
8466;SDS011;4270;48.148;11.648;2023-05-20T06:36:30;24.43;;;16.87;;
8466;SDS011;4270;48.148;11.648;2023-05-20T06:38:55;24.97;;;17.50;;
8466;SDS011;4270;48.148;11.648;2023-05-20T06:41:20;26.23;;;16.98;;
8466;SDS011;4270;48.148;11.648;2023-05-20T06:43:46;23.10;;;17.63;;
8466;SDS011;4270;48.148;11.648;2023-05-20T06:46:11;21.97;;;14.93;;
8466;SDS011;4270;48.148;11.648;2023-05-20T06:48:36;23.87;;;16.33;;
8466;SDS011;4270;48.148;11.648;2023-05-20T06:51:01;23.88;;;16.90;;
8466;SDS011;4270;48.148;11.648;2023-05-20T06:53:27;23.90;;;16.13;;
8466;SDS011;4270;48.148;11.648;2023-05-20T06:55:52;23.03;;;16.13;;
8466;SDS011;4270;48.148;11.648;2023-05-20T06:58:19;22.07;;;17.00;;
8466;SDS011;4270;48.148;11.648;2023-05-20T07:00:45;21.35;;;16.45;;
8466;SDS011;4270;48.148;11.648;2023-05-20T07:03:10;21.40;;;15.90;;
8466;SDS011;4270;48.148;11.648;2023-05-20T07:05:35;21.07;;;15.53;;
8466;SDS011;4270;48.148;11.648;2023-05-20T07:08:01;20.40;;;15.33;;
8466;SDS011;4270;48.148;11.648;2023-05-20T07:10:26;21.30;;;15.90;;
8466;SDS011;4270;48.148;11.648;2023-05-20T07:12:51;21.77;;;15.63;;
8466;SDS011;4270;48.148;11.648;2023-05-20T07:15:16;18.33;;;14.70;;
8466;SDS011;4270;48.148;11.648;2023-05-20T07:17:41;20.07;;;15.30;;
8466;SDS011;4270;48.148;11.648;2023-05-20T07:20:07;15.20;;;13.27;;
8466;SDS011;4270;48.148;11.648;2023-05-20T07:22:32;18.87;;;14.47;;
8466;SDS011;4270;48.148;11.648;2023-05-20T07:24:57;18.43;;;13.73;;
8466;SDS011;4270;48.148;11.648;2023-05-20T07:27:23;14.20;;;12.70;;
8466;SDS011;4270;48.148;11.648;2023-05-20T07:29:48;15.47;;;13.80;;
8466;SDS011;4270;48.148;11.648;2023-05-20T07:32:13;15.77;;;12.90;;
8466;SDS011;4270;48.148;11.648;2023-05-20T07:34:38;14.60;;;12.43;;
8466;SDS011;4270;48.148;11.648;2023-05-20T07:37:04;14.07;;;12.63;;
8466;SDS011;4270;48.148;11.648;2023-05-20T07:39:30;13.67;;;12.27;;
8466;SDS011;4270;48.148;11.648;2023-05-20T07:41:55;13.90;;;11.80;;
8466;SDS011;4270;48.148;11.648;2023-05-20T07:44:20;12.80;;;11.50;;
8466;SDS011;4270;48.148;11.648;2023-05-20T07:46:46;15.47;;;12.50;;
8466;SDS011;4270;48.148;11.648;2023-05-20T07:49:12;14.77;;;13.33;;
8466;SDS011;4270;48.148;11.648;2023-05-20T07:51:37;12.60;;;11.40;;
8466;SDS011;4270;48.148;11.648;2023-05-20T07:54:02;13.80;;;12.60;;
8466;SDS011;4270;48.148;11.648;2023-05-20T07:56:27;12.37;;;11.23;;
8466;SDS011;4270;48.148;11.648;2023-05-20T07:58:53;11.87;;;10.67;;
8466;SDS011;4270;48.148;11.648;2023-05-20T08:01:19;11.67;;;10.70;;
8466;SDS011;4270;48.148;11.648;2023-05-20T08:03:44;11.13;;;10.23;;
8466;SDS011;4270;48.148;11.648;2023-05-20T08:06:10;10.83;;;10.03;;
8466;SDS011;4270;48.148;11.648;2023-05-20T08:08:35;11.40;;;10.37;;
8466;SDS011;4270;48.148;11.648;2023-05-20T08:11:00;10.60;;;9.60;;
8466;SDS011;4270;48.148;11.648;2023-05-20T08:13:25;9.90;;;9.00;;
8466;SDS011;4270;48.148;11.648;2023-05-20T08:15:53;9.77;;;8.97;;
8466;SDS011;4270;48.148;11.648;2023-05-20T08:18:19;9.67;;;8.90;;
8466;SDS011;4270;48.148;11.648;2023-05-20T08:20:44;8.97;;;8.27;;
8466;SDS011;4270;48.148;11.648;2023-05-20T08:23:09;8.67;;;8.07;;
8466;SDS011;4270;48.148;11.648;2023-05-20T08:25:34;9.33;;;8.53;;
8466;SDS011;4270;48.148;11.648;2023-05-20T08:28:03;10.90;;;9.10;;
8466;SDS011;4270;48.148;11.648;2023-05-20T08:30:29;9.90;;;9.00;;
8466;SDS011;4270;48.148;11.648;2023-05-20T08:32:55;8.63;;;7.93;;
8466;SDS011;4270;48.148;11.648;2023-05-20T08:35:21;9.30;;;8.40;;
8466;SDS011;4270;48.148;11.648;2023-05-20T08:37:46;9.23;;;8.37;;
8466;SDS011;4270;48.148;11.648;2023-05-20T08:40:11;8.47;;;7.87;;
8466;SDS011;4270;48.148;11.648;2023-05-20T08:42:39;9.03;;;8.33;;
8466;SDS011;4270;48.148;11.648;2023-05-20T08:45:04;9.37;;;8.57;;
8466;SDS011;4270;48.148;11.648;2023-05-20T08:47:30;22.13;;;9.00;;
8466;SDS011;4270;48.148;11.648;2023-05-20T08:49:55;8.63;;;7.83;;
8466;SDS011;4270;48.148;11.648;2023-05-20T08:52:20;7.80;;;7.10;;
8466;SDS011;4270;48.148;11.648;2023-05-20T08:54:47;7.00;;;6.30;;
8466;SDS011;4270;48.148;11.648;2023-05-20T08:57:13;14.07;;;7.23;;
8466;SDS011;4270;48.148;11.648;2023-05-20T08:59:42;7.40;;;6.70;;
8466;SDS011;4270;48.148;11.648;2023-05-20T09:02:08;7.10;;;6.50;;
8466;SDS011;4270;48.148;11.648;2023-05-20T09:04:34;6.30;;;5.70;;
8466;SDS011;4270;48.148;11.648;2023-05-20T09:06:59;6.83;;;6.13;;
8466;SDS011;4270;48.148;11.648;2023-05-20T09:09:24;9.57;;;5.43;;
8466;SDS011;4270;48.148;11.648;2023-05-20T09:11:49;6.00;;;5.50;;
8466;SDS011;4270;48.148;11.648;2023-05-20T09:14:14;6.33;;;5.73;;
8466;SDS011;4270;48.148;11.648;2023-05-20T09:16:40;7.60;;;5.80;;
8466;SDS011;4270;48.148;11.648;2023-05-20T09:19:05;6.47;;;5.60;;
8466;SDS011;4270;48.148;11.648;2023-05-20T09:21:31;5.63;;;5.13;;
8466;SDS011;4270;48.148;11.648;2023-05-20T09:23:56;4.70;;;4.30;;
8466;SDS011;4270;48.148;11.648;2023-05-20T09:26:26;6.53;;;4.60;;
8466;SDS011;4270;48.148;11.648;2023-05-20T09:28:51;4.43;;;4.03;;
8466;SDS011;4270;48.148;11.648;2023-05-20T09:31:16;7.55;;;4.40;;
8466;SDS011;4270;48.148;11.648;2023-05-20T09:33:41;4.63;;;4.25;;
8466;SDS011;4270;48.148;11.648;2023-05-20T09:36:08;4.38;;;4.07;;
8466;SDS011;4270;48.148;11.648;2023-05-20T09:38:37;5.32;;;4.93;;
8466;SDS011;4270;48.148;11.648;2023-05-20T09:41:05;5.35;;;4.80;;
8466;SDS011;4270;48.148;11.648;2023-05-20T09:43:31;5.10;;;4.60;;
8466;SDS011;4270;48.148;11.648;2023-05-20T09:45:57;5.30;;;4.87;;
8466;SDS011;4270;48.148;11.648;2023-05-20T09:48:24;5.47;;;4.97;;
8466;SDS011;4270;48.148;11.648;2023-05-20T09:50:50;4.20;;;3.90;;
8466;SDS011;4270;48.148;11.648;2023-05-20T09:53:15;5.20;;;4.60;;
8466;SDS011;4270;48.148;11.648;2023-05-20T09:55:41;4.60;;;4.30;;
8466;SDS011;4270;48.148;11.648;2023-05-20T09:58:06;6.50;;;4.30;;
8466;SDS011;4270;48.148;11.648;2023-05-20T10:00:33;4.70;;;4.40;;
8466;SDS011;4270;48.148;11.648;2023-05-20T10:02:58;6.33;;;4.50;;
8466;SDS011;4270;48.148;11.648;2023-05-20T10:05:26;5.80;;;5.20;;
8466;SDS011;4270;48.148;11.648;2023-05-20T10:18:32;5.00;;;4.60;;
8466;SDS011;4270;48.148;11.648;2023-05-20T10:21:00;4.57;;;4.23;;
8466;SDS011;4270;48.148;11.648;2023-05-20T10:23:29;4.17;;;3.83;;
8466;SDS011;4270;48.148;11.648;2023-05-20T10:25:55;5.23;;;4.83;;
8466;SDS011;4270;48.148;11.648;2023-05-20T10:28:27;4.77;;;3.93;;
8466;SDS011;4270;48.148;11.648;2023-05-20T10:30:53;6.77;;;4.27;;
8466;SDS011;4270;48.148;11.648;2023-05-20T10:33:18;4.15;;;3.85;;
8466;SDS011;4270;48.148;11.648;2023-05-20T10:35:48;5.33;;;3.50;;
8466;SDS011;4270;48.148;11.648;2023-05-20T10:38:14;4.70;;;3.70;;
8466;SDS011;4270;48.148;11.648;2023-05-20T10:40:39;4.40;;;3.93;;
8466;SDS011;4270;48.148;11.648;2023-05-20T10:43:15;3.80;;;3.50;;
8466;SDS011;4270;48.148;11.648;2023-05-20T10:45:50;4.30;;;3.90;;
8466;SDS011;4270;48.148;11.648;2023-05-20T10:48:23;4.17;;;3.87;;
8466;SDS011;4270;48.148;11.648;2023-05-20T10:50:49;5.40;;;4.20;;
8466;SDS011;4270;48.148;11.648;2023-05-20T10:53:14;4.13;;;3.33;;
8466;SDS011;4270;48.148;11.648;2023-05-20T10:55:40;3.90;;;3.47;;
8466;SDS011;4270;48.148;11.648;2023-05-20T10:58:06;4.13;;;3.67;;
8466;SDS011;4270;48.148;11.648;2023-05-20T11:00:34;4.60;;;3.53;;
8466;SDS011;4270;48.148;11.648;2023-05-20T11:03:00;6.57;;;3.50;;
8466;SDS011;4270;48.148;11.648;2023-05-20T11:05:26;4.60;;;4.20;;
8466;SDS011;4270;48.148;11.648;2023-05-20T11:07:59;4.87;;;3.50;;
8466;SDS011;4270;48.148;11.648;2023-05-20T11:10:24;4.00;;;3.70;;
8466;SDS011;4270;48.148;11.648;2023-05-20T11:12:49;3.97;;;3.57;;
8466;SDS011;4270;48.148;11.648;2023-05-20T11:15:14;4.00;;;3.70;;
8466;SDS011;4270;48.148;11.648;2023-05-20T11:17:50;5.43;;;3.70;;
8466;SDS011;4270;48.148;11.648;2023-05-20T11:20:15;5.27;;;3.77;;
8466;SDS011;4270;48.148;11.648;2023-05-20T11:22:40;3.80;;;3.40;;
8466;SDS011;4270;48.148;11.648;2023-05-20T11:25:05;4.20;;;3.80;;
8466;SDS011;4270;48.148;11.648;2023-05-20T11:27:32;4.93;;;4.17;;
8466;SDS011;4270;48.148;11.648;2023-05-20T11:29:57;4.40;;;4.00;;
8466;SDS011;4270;48.148;11.648;2023-05-20T11:32:22;4.17;;;3.77;;
8466;SDS011;4270;48.148;11.648;2023-05-20T11:34:49;4.17;;;3.87;;
8466;SDS011;4270;48.148;11.648;2023-05-20T11:37:15;4.50;;;4.17;;
8466;SDS011;4270;48.148;11.648;2023-05-20T11:39:41;4.00;;;3.70;;
8466;SDS011;4270;48.148;11.648;2023-05-20T11:42:06;4.23;;;3.83;;
8466;SDS011;4270;48.148;11.648;2023-05-20T11:44:32;5.87;;;4.70;;
8466;SDS011;4270;48.148;11.648;2023-05-20T11:47:01;9.10;;;3.83;;
8466;SDS011;4270;48.148;11.648;2023-05-20T11:49:27;4.00;;;3.67;;
8466;SDS011;4270;48.148;11.648;2023-05-20T11:51:52;4.30;;;3.90;;
8466;SDS011;4270;48.148;11.648;2023-05-20T11:54:17;4.73;;;3.93;;
8466;SDS011;4270;48.148;11.648;2023-05-20T11:56:46;5.87;;;3.60;;
8466;SDS011;4270;48.148;11.648;2023-05-20T11:59:11;4.10;;;3.50;;
8466;SDS011;4270;48.148;11.648;2023-05-20T12:01:36;4.67;;;4.10;;
8466;SDS011;4270;48.148;11.648;2023-05-20T12:04:04;7.30;;;3.87;;
8466;SDS011;4270;48.148;11.648;2023-05-20T12:06:30;6.03;;;4.13;;
8466;SDS011;4270;48.148;11.648;2023-05-20T12:08:56;7.43;;;4.63;;
8466;SDS011;4270;48.148;11.648;2023-05-20T12:11:21;4.97;;;4.47;;
8466;SDS011;4270;48.148;11.648;2023-05-20T12:13:46;4.77;;;3.80;;
8466;SDS011;4270;48.148;11.648;2023-05-20T12:16:11;5.53;;;4.30;;
8466;SDS011;4270;48.148;11.648;2023-05-20T12:18:39;4.40;;;4.00;;
8466;SDS011;4270;48.148;11.648;2023-05-20T12:21:05;6.13;;;4.70;;
8466;SDS011;4270;48.148;11.648;2023-05-20T12:23:30;4.77;;;4.37;;
8466;SDS011;4270;48.148;11.648;2023-05-20T12:25:57;7.67;;;5.10;;
8466;SDS011;4270;48.148;11.648;2023-05-20T12:28:23;6.67;;;4.40;;
8466;SDS011;4270;48.148;11.648;2023-05-20T12:30:48;5.40;;;4.10;;
8466;SDS011;4270;48.148;11.648;2023-05-20T12:33:15;4.60;;;4.13;;
8466;SDS011;4270;48.148;11.648;2023-05-20T12:35:41;4.50;;;4.10;;
8466;SDS011;4270;48.148;11.648;2023-05-20T12:38:07;6.80;;;5.43;;
8466;SDS011;4270;48.148;11.648;2023-05-20T12:40:32;5.80;;;5.00;;
8466;SDS011;4270;48.148;11.648;2023-05-20T12:42:59;5.00;;;4.60;;
8466;SDS011;4270;48.148;11.648;2023-05-20T12:45:24;6.63;;;5.93;;
8466;SDS011;4270;48.148;11.648;2023-05-20T12:47:50;5.80;;;5.20;;
8466;SDS011;4270;48.148;11.648;2023-05-20T12:50:15;6.30;;;5.60;;
8466;SDS011;4270;48.148;11.648;2023-05-20T12:52:40;5.70;;;5.20;;
8466;SDS011;4270;48.148;11.648;2023-05-20T12:55:05;6.03;;;4.90;;
8466;SDS011;4270;48.148;11.648;2023-05-20T12:57:37;6.40;;;5.87;;
8466;SDS011;4270;48.148;11.648;2023-05-20T13:00:02;7.93;;;6.10;;
8466;SDS011;4270;48.148;11.648;2023-05-20T13:02:30;7.50;;;6.80;;
8466;SDS011;4270;48.148;11.648;2023-05-20T13:04:55;7.07;;;6.47;;
8466;SDS011;4270;48.148;11.648;2023-05-20T13:07:20;6.67;;;6.07;;
8466;SDS011;4270;48.148;11.648;2023-05-20T13:09:45;7.27;;;6.40;;
8466;SDS011;4270;48.148;11.648;2023-05-20T13:12:11;7.30;;;6.60;;
8466;SDS011;4270;48.148;11.648;2023-05-20T13:14:36;7.93;;;7.13;;
8466;SDS011;4270;48.148;11.648;2023-05-20T13:17:01;8.03;;;7.13;;
8466;SDS011;4270;48.148;11.648;2023-05-20T13:19:26;8.07;;;6.70;;
8466;SDS011;4270;48.148;11.648;2023-05-20T13:21:51;9.30;;;6.80;;
8466;SDS011;4270;48.148;11.648;2023-05-20T13:24:18;8.27;;;7.10;;
8466;SDS011;4270;48.148;11.648;2023-05-20T13:26:43;8.77;;;7.43;;
8466;SDS011;4270;48.148;11.648;2023-05-20T13:29:09;7.10;;;6.50;;
8466;SDS011;4270;48.148;11.648;2023-05-20T13:31:34;8.30;;;7.40;;
8466;SDS011;4270;48.148;11.648;2023-05-20T13:33:59;7.30;;;6.40;;
8466;SDS011;4270;48.148;11.648;2023-05-20T13:36:25;8.50;;;7.43;;
8466;SDS011;4270;48.148;11.648;2023-05-20T13:38:50;7.50;;;6.80;;
8466;SDS011;4270;48.148;11.648;2023-05-20T13:41:15;9.40;;;7.40;;
8466;SDS011;4270;48.148;11.648;2023-05-20T13:43:41;8.57;;;7.13;;
8466;SDS011;4270;48.148;11.648;2023-05-20T13:46:06;9.27;;;7.90;;
8466;SDS011;4270;48.148;11.648;2023-05-20T13:48:31;8.40;;;7.03;;
8466;SDS011;4270;48.148;11.648;2023-05-20T13:50:57;8.17;;;7.30;;
8466;SDS011;4270;48.148;11.648;2023-05-20T13:53:22;8.23;;;7.30;;
8466;SDS011;4270;48.148;11.648;2023-05-20T13:55:47;7.13;;;6.23;;
8466;SDS011;4270;48.148;11.648;2023-05-20T13:58:12;10.00;;;6.43;;
8466;SDS011;4270;48.148;11.648;2023-05-20T14:00:38;8.50;;;7.70;;
8466;SDS011;4270;48.148;11.648;2023-05-20T14:03:03;6.97;;;6.37;;
8466;SDS011;4270;48.148;11.648;2023-05-20T14:05:29;10.10;;;7.00;;
8466;SDS011;4270;48.148;11.648;2023-05-20T14:07:54;10.83;;;7.23;;
8466;SDS011;4270;48.148;11.648;2023-05-20T14:10:19;8.23;;;7.35;;
8466;SDS011;4270;48.148;11.648;2023-05-20T14:12:45;8.73;;;6.93;;
8466;SDS011;4270;48.148;11.648;2023-05-20T14:15:12;9.00;;;7.40;;
8466;SDS011;4270;48.148;11.648;2023-05-20T14:17:37;8.40;;;7.60;;
8466;SDS011;4270;48.148;11.648;2023-05-20T14:20:02;9.87;;;7.57;;
8466;SDS011;4270;48.148;11.648;2023-05-20T14:22:27;8.70;;;7.07;;
8466;SDS011;4270;48.148;11.648;2023-05-20T14:24:52;8.10;;;7.30;;
8466;SDS011;4270;48.148;11.648;2023-05-20T14:27:17;7.80;;;7.00;;
8466;SDS011;4270;48.148;11.648;2023-05-20T14:29:43;9.13;;;8.10;;
8466;SDS011;4270;48.148;11.648;2023-05-20T14:32:08;8.33;;;7.53;;
8466;SDS011;4270;48.148;11.648;2023-05-20T14:34:35;8.50;;;7.70;;
8466;SDS011;4270;48.148;11.648;2023-05-20T14:37:00;8.10;;;7.30;;
8466;SDS011;4270;48.148;11.648;2023-05-20T14:39:31;8.10;;;7.30;;
8466;SDS011;4270;48.148;11.648;2023-05-20T14:41:56;8.77;;;7.73;;
8466;SDS011;4270;48.148;11.648;2023-05-20T14:44:22;8.50;;;7.60;;
8466;SDS011;4270;48.148;11.648;2023-05-20T14:46:47;9.50;;;8.00;;
8466;SDS011;4270;48.148;11.648;2023-05-20T14:49:12;8.10;;;7.27;;
8466;SDS011;4270;48.148;11.648;2023-05-20T14:51:37;8.70;;;7.90;;